Time;durP1;ratioP1;P1;durP2;ratioP2;P2;SDS_P1;SDS_P2;PMS_P1;PMS_P2;Temp;Humidity;BMP_temperature;BMP_pressure;BME280_temperature;BME280_humidity;BME280_pressure;Samples;Min_cycle;Max_cycle;Signal;HPM_P1;HPM_P2
2023/04/29 00:02:18;;;;;;;10.77;7.32;;;;;;;9.28;57.63;95117.22;4947156;28;20213;-61
2023/04/29 00:04:45;;;;;;;15.88;7.82;;;;;;;9.28;57.90;95107.06;4944759;28;20731;-63
2023/04/29 00:07:14;;;;;;;15.88;7.80;;;;;;;9.32;58.06;95113.72;4947514;28;20260;-61
2023/04/29 00:09:41;;;;;;;13.90;7.10;;;;;;;9.28;58.33;95109.59;4946655;28;20212;-61
2023/04/29 00:12:09;;;;;;;12.50;8.00;;;;;;;9.19;58.68;95112.38;4947298;28;20662;-62
2023/04/29 00:14:35;;;;;;;14.80;7.30;;;;;;;9.27;59.00;95110.47;4947152;28;20295;-61
2023/04/29 00:17:02;;;;;;;11.82;7.63;;;;;;;9.21;58.66;95105.56;4947004;28;20331;-61
2023/04/29 00:19:29;;;;;;;16.77;6.80;;;;;;;9.13;59.25;95112.56;4946552;28;20833;-62
2023/04/29 00:21:55;;;;;;;14.85;7.05;;;;;;;9.00;59.05;95099.38;4946557;28;20718;-62
2023/04/29 00:24:24;;;;;;;10.30;6.80;;;;;;;9.06;59.44;95116.13;4946712;28;20240;-62
2023/04/29 00:26:50;;;;;;;15.95;7.13;;;;;;;8.97;59.75;95116.38;4946954;28;20305;-63
2023/04/29 00:29:17;;;;;;;12.48;6.35;;;;;;;9.06;58.79;95122.03;4946014;28;20327;-63
2023/04/29 00:31:44;;;;;;;9.43;6.28;;;;;;;8.93;58.72;95124.91;4946394;28;20204;-63
2023/04/29 00:34:11;;;;;;;6.22;5.40;;;;;;;8.94;57.50;95117.28;4945128;28;20220;-62
2023/04/29 00:36:38;;;;;;;11.48;6.50;;;;;;;8.90;57.52;95120.78;4945324;28;20284;-62
2023/04/29 00:39:05;;;;;;;11.07;6.22;;;;;;;8.84;57.36;95115.88;4945531;28;20325;-62
2023/04/29 00:41:33;;;;;;;8.40;5.97;;;;;;;8.82;57.37;95118.44;4946019;28;20272;-62
2023/04/29 00:43:59;;;;;;;6.25;5.65;;;;;;;8.75;57.41;95114.38;4947510;28;20335;-62
2023/04/29 00:46:26;;;;;;;10.27;6.18;;;;;;;8.70;57.66;95113.66;4945713;28;20287;-62
2023/04/29 00:48:53;;;;;;;11.57;6.28;;;;;;;8.53;58.53;95109.03;4946677;28;20232;-61
2023/04/29 00:51:20;;;;;;;6.85;6.00;;;;;;;8.59;59.28;95113.13;4946584;28;20260;-61
2023/04/29 00:53:47;;;;;;;11.93;7.32;;;;;;;8.57;59.86;95109.81;4947709;28;20703;-61
2023/04/29 00:56:14;;;;;;;9.38;6.80;;;;;;;8.56;60.68;95105.59;4944940;28;20315;-63
2023/04/29 00:58:48;;;;;;;17.48;6.75;;;;;;;8.54;60.67;95104.81;4947016;28;20208;-62
2023/04/29 01:01:16;;;;;;;11.82;5.93;;;;;;;8.56;60.95;95098.00;4944659;28;20353;-63
2023/04/29 01:03:43;;;;;;;8.98;6.13;;;;;;;8.57;60.87;95093.78;4947455;28;20215;-62
2023/04/29 01:06:19;;;;;;;6.93;6.13;;;;;;;8.53;61.32;95096.38;4946061;28;20287;-62
2023/04/29 01:09:00;;;;;;;7.55;6.00;;;;;;;8.64;60.93;95091.06;4945126;28;20738;-62
2023/04/29 01:11:34;;;;;;;10.20;6.03;;;;;;;8.59;61.39;95075.13;4945265;28;20766;-61
2023/04/29 01:14:04;;;;;;;8.02;5.70;;;;;;;8.54;61.09;95087.06;4946523;28;20229;-63
2023/04/29 01:16:37;;;;;;;10.73;6.45;;;;;;;8.53;61.77;95080.34;4944938;28;20798;-62
2023/04/29 01:19:17;;;;;;;6.40;5.75;;;;;;;8.58;61.75;95081.06;4946012;28;20296;-63
2023/04/29 01:21:48;;;;;;;10.13;5.60;;;;;;;8.60;61.51;95081.88;4947438;28;20235;-61
2023/04/29 01:24:17;;;;;;;12.32;5.93;;;;;;;8.50;61.28;95070.28;4945510;28;20204;-62
2023/04/29 01:26:49;;;;;;;11.90;5.55;;;;;;;8.55;61.22;95081.16;4942830;28;20261;-63
2023/04/29 01:29:27;;;;;;;8.02;5.45;;;;;;;8.49;61.51;95088.88;4943856;28;21280;-62
2023/04/29 01:32:03;;;;;;;16.00;7.05;;;;;;;8.42;61.62;95079.78;4944365;28;22241;-62
2023/04/29 01:34:37;;;;;;;7.47;6.53;;;;;;;8.36;61.75;95078.25;4943644;28;20204;-63
2023/04/29 01:37:10;;;;;;;9.68;6.47;;;;;;;8.38;60.69;95083.28;4944417;28;20225;-62
2023/04/29 01:39:46;;;;;;;8.27;5.88;;;;;;;8.41;61.26;95085.72;4944566;28;20332;-62
2023/04/29 01:42:20;;;;;;;6.75;6.05;;;;;;;8.37;62.03;95079.06;4945616;28;20295;-63
2023/04/29 01:44:49;;;;;;;8.18;5.95;;;;;;;8.27;62.23;95085.19;4946537;28;20301;-62
2023/04/29 01:47:16;;;;;;;7.20;6.10;;;;;;;8.23;62.11;95081.06;4945964;28;20289;-63
2023/04/29 01:49:45;;;;;;;8.30;5.32;;;;;;;8.25;61.63;95079.34;4945947;28;20326;-61
2023/04/29 01:52:12;;;;;;;7.00;5.93;;;;;;;8.25;62.30;95075.09;4946387;28;20352;-62
2023/04/29 01:54:40;;;;;;;8.90;5.90;;;;;;;8.18;62.57;95079.47;4945923;28;21002;-62
2023/04/29 01:57:07;;;;;;;8.75;6.03;;;;;;;8.16;62.60;95077.88;4947286;28;20228;-64
2023/04/29 01:59:34;;;;;;;10.95;5.95;;;;;;;8.18;62.23;95078.63;4943817;28;20213;-64
2023/04/29 02:02:00;;;;;;;6.57;5.88;;;;;;;8.23;63.36;95081.06;4945821;28;20209;-64
2023/04/29 02:04:27;;;;;;;6.82;6.18;;;;;;;8.14;63.23;95087.19;4946644;28;20627;-61
2023/04/29 02:06:54;;;;;;;10.02;6.75;;;;;;;8.00;63.66;95095.09;4946943;28;20311;-62
2023/04/29 02:09:21;;;;;;;9.07;6.15;;;;;;;7.99;64.49;95088.38;4944814;28;20287;-63
2023/04/29 02:11:49;;;;;;;11.60;6.82;;;;;;;8.01;63.72;95091.69;4946361;28;20205;-62
2023/04/29 02:14:15;;;;;;;11.07;6.60;;;;;;;7.93;63.14;95087.69;4944738;28;20301;-62
2023/04/29 02:16:44;;;;;;;11.48;6.00;;;;;;;7.88;64.50;95084.44;4945278;28;20275;-63
2023/04/29 02:19:11;;;;;;;15.32;6.85;;;;;;;7.79;64.17;95082.94;4944920;28;20213;-63
2023/04/29 02:21:38;;;;;;;12.32;6.65;;;;;;;7.90;63.61;95085.25;4945383;28;20209;-63
2023/04/29 02:24:05;;;;;;;8.43;5.93;;;;;;;7.82;63.58;95082.88;4946677;28;20217;-63
2023/04/29 02:26:33;;;;;;;7.50;6.28;;;;;;;7.72;63.65;95087.28;4944736;28;20758;-62
2023/04/29 02:29:02;;;;;;;9.18;7.57;;;;;;;7.51;65.12;95086.06;4945470;28;20701;-62
2023/04/29 02:31:29;;;;;;;16.42;8.48;;;;;;;7.53;64.53;95083.50;4947281;28;20204;-62
2023/04/29 02:33:56;;;;;;;16.35;7.95;;;;;;;7.46;65.08;95082.81;4944511;28;20750;-62
2023/04/29 02:36:23;;;;;;;10.30;7.85;;;;;;;7.37;65.06;95088.06;4944568;28;21878;-63
2023/04/29 02:38:50;;;;;;;9.68;7.68;;;;;;;7.37;64.53;95088.06;4949067;28;20209;-64
2023/04/29 02:41:17;;;;;;;9.68;7.55;;;;;;;7.39;64.42;95090.56;4948988;28;20209;-62
2023/04/29 02:43:44;;;;;;;18.13;7.88;;;;;;;7.31;65.15;95078.06;4948459;28;20205;-62
2023/04/29 02:46:12;;;;;;;10.52;7.85;;;;;;;7.20;64.92;95079.97;4949201;28;20207;-62
2023/04/29 02:48:39;;;;;;;14.77;8.88;;;;;;;7.27;64.62;95086.59;4949100;28;20339;-61
2023/04/29 02:51:06;;;;;;;8.35;7.38;;;;;;;7.19;64.97;95083.38;4947533;28;20236;-61
2023/04/29 02:53:33;;;;;;;12.73;7.80;;;;;;;7.21;64.93;95093.44;4948481;28;20201;-61
2023/04/29 02:56:00;;;;;;;12.57;8.13;;;;;;;7.16;65.02;95093.56;4948287;28;20205;-64
2023/04/29 02:58:26;;;;;;;11.63;7.40;;;;;;;7.20;64.71;95110.31;4950114;28;20196;-64
2023/04/29 03:00:53;;;;;;;14.30;7.00;;;;;;;7.24;64.79;95111.91;4948758;28;20312;-62
2023/04/29 03:03:21;;;;;;;8.57;7.28;;;;;;;7.22;64.02;95102.69;4949876;28;20201;-61
2023/04/29 03:05:49;;;;;;;11.98;7.70;;;;;;;7.10;64.56;95098.72;4948999;28;20209;-62
2023/04/29 03:08:15;;;;;;;11.32;8.68;;;;;;;7.24;63.89;95101.81;4949401;28;21088;-62
2023/04/29 03:10:42;;;;;;;10.73;8.38;;;;;;;7.21;63.83;95099.34;4948540;28;20299;-63
2023/04/29 03:13:09;;;;;;;12.80;9.05;;;;;;;7.19;63.99;95103.59;4949843;28;20299;-62
2023/04/29 03:15:37;;;;;;;12.32;8.65;;;;;;;7.09;64.61;95112.22;4947971;28;20298;-63
2023/04/29 03:18:04;;;;;;;9.85;8.48;;;;;;;7.13;64.62;95098.69;4949433;28;20213;-63
2023/04/29 03:20:32;;;;;;;12.80;8.82;;;;;;;7.08;64.98;95110.56;4949728;28;20442;-62
2023/04/29 03:22:59;;;;;;;10.20;8.68;;;;;;;7.04;65.59;95114.84;4949494;28;20730;-61
2023/04/29 03:25:27;;;;;;;19.48;8.65;;;;;;;7.12;64.89;95117.22;4948202;28;20233;-61
2023/04/29 03:27:54;;;;;;;12.38;8.95;;;;;;;7.06;65.18;95129.97;4948274;28;20789;-62
2023/04/29 03:30:21;;;;;;;9.82;8.50;;;;;;;6.95;66.56;95134.38;4947165;28;20938;-63
2023/04/29 03:32:47;;;;;;;14.50;8.95;;;;;;;7.04;65.89;95131.69;4946875;28;20213;-62
2023/04/29 03:35:14;;;;;;;11.85;9.15;;;;;;;7.04;66.36;95139.28;4946523;28;20323;-62
2023/04/29 03:37:43;;;;;;;23.58;9.63;;;;;;;7.05;66.16;95130.84;4947591;28;20229;-62
2023/04/29 03:40:11;;;;;;;14.43;9.32;;;;;;;7.09;65.70;95140.03;4947011;28;20205;-63
2023/04/29 03:42:37;;;;;;;17.00;9.60;;;;;;;7.16;66.30;95141.59;4948349;28;20296;-62
2023/04/29 03:45:05;;;;;;;11.90;8.63;;;;;;;7.22;66.04;95135.56;4948463;28;20213;-63
2023/04/29 03:47:32;;;;;;;11.23;7.95;;;;;;;7.33;65.51;95131.13;4948037;28;20465;-63
2023/04/29 03:49:59;;;;;;;9.45;7.32;;;;;;;7.51;65.73;95124.00;4948106;28;20307;-60
2023/04/29 03:52:25;;;;;;;11.27;8.20;;;;;;;7.49;65.21;95127.41;4947969;28;22191;-61
2023/04/29 03:54:53;;;;;;;11.88;8.05;;;;;;;7.63;65.64;95122.09;4948424;28;20590;-61
2023/04/29 03:57:20;;;;;;;11.38;8.13;;;;;;;7.81;64.96;95121.69;4947661;28;20348;-64
2023/04/29 03:59:49;;;;;;;12.60;8.52;;;;;;;7.84;64.83;95119.94;4948382;28;20309;-63
2023/04/29 04:02:15;;;;;;;10.90;6.95;;;;;;;7.81;64.90;95109.03;4947250;28;21817;-62
2023/04/29 04:04:42;;;;;;;8.23;6.53;;;;;;;8.05;64.54;95125.38;4948252;28;20300;-63
2023/04/29 04:07:10;;;;;;;15.40;7.00;;;;;;;8.22;63.57;95124.97;4947829;28;20248;-62
2023/04/29 04:09:37;;;;;;;13.77;7.85;;;;;;;8.45;62.44;95137.94;4947111;28;20198;-62
2023/04/29 04:12:06;;;;;;;10.60;7.30;;;;;;;8.58;62.03;95133.44;4947388;28;20777;-63
2023/04/29 04:14:33;;;;;;;13.90;7.35;;;;;;;8.61;62.73;95139.25;4948162;28;20305;-64
2023/04/29 04:17:00;;;;;;;13.95;8.15;;;;;;;8.73;62.89;95138.94;4946726;28;20295;-62
2023/04/29 04:19:27;;;;;;;13.93;7.57;;;;;;;8.87;62.40;95136.06;4948505;28;20308;-62
2023/04/29 04:21:54;;;;;;;14.57;6.93;;;;;;;8.97;61.97;95141.72;4947225;28;20231;-63
2023/04/29 04:24:21;;;;;;;10.85;7.25;;;;;;;9.12;61.63;95126.13;4947443;28;20295;-63
2023/04/29 04:26:48;;;;;;;10.20;7.85;;;;;;;9.26;60.76;95125.72;4946544;28;20296;-62
2023/04/29 04:29:16;;;;;;;15.25;7.25;;;;;;;9.26;60.07;95118.94;4947124;28;20224;-61
2023/04/29 04:31:43;;;;;;;14.55;7.50;;;;;;;9.38;60.12;95123.69;4945929;28;20321;-63
2023/04/29 04:34:09;;;;;;;9.05;6.78;;;;;;;9.52;59.31;95124.13;4947423;28;20209;-62
2023/04/29 04:36:36;;;;;;;10.63;5.75;;;;;;;9.64;58.11;95129.75;4946430;28;20324;-63
2023/04/29 04:39:03;;;;;;;8.20;4.85;;;;;;;9.77;57.00;95133.56;4946840;28;20227;-62
2023/04/29 04:41:30;;;;;;;8.10;4.95;;;;;;;9.73;56.96;95137.91;4948226;28;20205;-63
2023/04/29 04:43:58;;;;;;;8.02;5.68;;;;;;;9.82;57.30;95129.19;4946915;28;20219;-62
2023/04/29 04:46:26;;;;;;;9.93;5.95;;;;;;;9.97;56.79;95143.97;4947116;28;20272;-62
2023/04/29 04:48:52;;;;;;;9.10;5.85;;;;;;;10.08;56.26;95139.41;4947069;28;20323;-63
2023/04/29 04:51:19;;;;;;;7.75;6.00;;;;;;;10.20;55.82;95141.59;4946474;28;20316;-63
2023/04/29 04:53:46;;;;;;;14.32;6.68;;;;;;;10.29;55.64;95127.78;4946788;28;21738;-63
2023/04/29 04:56:13;;;;;;;8.35;5.28;;;;;;;10.52;55.36;95121.97;4946367;28;20340;-63
2023/04/29 04:58:39;;;;;;;7.82;5.30;;;;;;;10.65;54.67;95113.03;4946975;28;20430;-62
2023/04/29 05:01:06;;;;;;;12.93;6.60;;;;;;;10.72;54.38;95113.69;4946677;28;20347;-63
2023/04/29 05:03:34;;;;;;;8.45;7.03;;;;;;;10.68;54.48;95118.03;4946094;28;20216;-63
2023/04/29 05:06:01;;;;;;;15.77;8.40;;;;;;;10.93;54.58;95118.03;4946021;28;20312;-64
2023/04/29 05:08:28;;;;;;;13.23;7.03;;;;;;;11.16;53.60;95100.28;4947106;28;20279;-63
2023/04/29 05:10:55;;;;;;;10.70;6.40;;;;;;;11.61;52.34;95117.34;4946759;28;20292;-62
2023/04/29 05:13:22;;;;;;;7.85;6.05;;;;;;;11.76;52.09;95108.28;4946632;28;20972;-60
2023/04/29 05:15:48;;;;;;;7.00;5.53;;;;;;;11.85;50.99;95092.72;4944957;28;20811;-62
2023/04/29 05:18:15;;;;;;;8.77;5.75;;;;;;;11.69;51.08;95091.59;4945299;28;20240;-62
2023/04/29 05:20:43;;;;;;;9.52;5.93;;;;;;;11.47;51.90;95089.84;4938630;28;20213;-62
2023/04/29 05:23:10;;;;;;;9.15;5.90;;;;;;;11.50;51.97;95094.81;4945984;28;20263;-65
2023/04/29 05:25:37;;;;;;;12.63;6.13;;;;;;;11.70;51.79;95096.63;4943306;28;20201;-64
2023/04/29 05:28:04;;;;;;;7.82;6.00;;;;;;;11.81;51.43;95088.63;4941358;28;20316;-62
2023/04/29 05:30:31;;;;;;;8.95;5.60;;;;;;;12.08;50.70;95095.22;4942889;28;20276;-64
2023/04/29 05:32:58;;;;;;;10.38;6.15;;;;;;;12.13;50.67;95095.84;4943304;28;20821;-62
2023/04/29 05:35:25;;;;;;;11.32;6.38;;;;;;;12.24;51.09;95093.72;4941247;28;20315;-62
2023/04/29 05:37:53;;;;;;;13.32;8.73;;;;;;;12.47;50.54;95081.75;4941329;28;20768;-62
2023/04/29 05:40:22;;;;;;;15.02;8.65;;;;;;;12.85;49.61;95075.94;4938820;28;20237;-63
2023/04/29 05:42:48;;;;;;;13.45;10.02;;;;;;;13.24;48.63;95083.63;4961340;28;20206;-63
2023/04/29 05:45:15;;;;;;;11.68;8.32;;;;;;;13.66;47.53;95089.44;4988132;28;20619;-63
2023/04/29 05:47:42;;;;;;;8.65;7.20;;;;;;;14.13;46.60;95082.97;4990839;28;20253;-64
2023/04/29 05:50:10;;;;;;;13.00;7.00;;;;;;;14.58;44.90;95081.72;4990285;28;20260;-65
2023/04/29 05:52:37;;;;;;;15.52;10.98;;;;;;;15.37;43.23;95085.34;4989219;28;20205;-65
2023/04/29 05:55:05;;;;;;;22.58;15.82;;;;;;;16.89;40.62;95082.16;4989156;28;20647;-66
2023/04/29 05:57:32;;;;;;;25.48;15.25;;;;;;;19.77;35.15;95073.28;4988079;28;20212;-65
2023/04/29 05:59:59;;;;;;;17.70;9.77;;;;;;;22.87;29.74;95074.81;4990254;28;20236;-67
2023/04/29 06:02:26;;;;;;;32.30;17.00;;;;;;;26.17;25.18;95068.91;4990721;28;20209;-67
2023/04/29 06:04:53;;;;;;;14.18;10.68;;;;;;;28.31;22.36;95066.72;4990300;28;20727;-67
2023/04/29 06:07:20;;;;;;;25.40;13.55;;;;;;;29.83;20.85;95057.41;4990611;28;20264;-67
2023/04/29 06:09:47;;;;;;;21.15;13.63;;;;;;;31.76;19.20;95051.84;4989463;28;20252;-69
2023/04/29 06:12:15;;;;;;;11.95;8.20;;;;;;;34.04;17.69;95045.72;4991369;28;20236;-69
2023/04/29 06:14:42;;;;;;;13.98;7.43;;;;;;;35.21;16.42;95048.06;4993817;28;20330;-67
2023/04/29 06:17:08;;;;;;;12.77;6.65;;;;;;;36.49;15.03;95049.25;4994744;28;20209;-68
2023/04/29 06:19:35;;;;;;;10.50;7.18;;;;;;;37.25;14.35;95047.34;4994114;28;20209;-68
2023/04/29 06:22:02;;;;;;;8.88;7.20;;;;;;;38.05;13.71;95042.13;4994106;28;20244;-68
2023/04/29 06:24:29;;;;;;;11.32;6.80;;;;;;;38.16;13.67;95044.03;4993782;28;20255;-68
2023/04/29 06:26:55;;;;;;;9.25;7.88;;;;;;;38.29;13.25;95049.19;4993813;28;20237;-69
2023/04/29 06:29:23;;;;;;;10.73;8.23;;;;;;;38.45;13.37;95043.25;4994240;28;20667;-69
2023/04/29 06:31:50;;;;;;;11.15;7.75;;;;;;;38.83;13.23;95050.13;4993409;28;20201;-69
2023/04/29 06:34:17;;;;;;;11.15;6.88;;;;;;;39.67;13.07;95045.53;4993932;28;20205;-69
2023/04/29 06:36:43;;;;;;;10.50;7.63;;;;;;;39.77;12.68;95046.59;4984902;28;20232;-69
2023/04/29 06:39:10;;;;;;;9.07;7.03;;;;;;;40.24;11.86;95038.53;4993963;28;20260;-69
2023/04/29 06:41:37;;;;;;;9.05;6.63;;;;;;;39.65;12.51;95036.97;4993983;28;20240;-69
2023/04/29 06:44:04;;;;;;;9.93;6.88;;;;;;;40.41;12.11;95035.94;4991615;28;20687;-67
2023/04/29 06:46:33;;;;;;;8.40;6.78;;;;;;;41.89;11.36;95028.56;4993570;28;20252;-68
2023/04/29 06:48:59;;;;;;;7.68;6.00;;;;;;;42.70;10.90;95037.56;4994131;28;20247;-69
2023/04/29 06:51:26;;;;;;;7.88;6.18;;;;;;;42.00;10.72;95038.34;4993679;28;20789;-69
2023/04/29 06:53:53;;;;;;;6.75;4.88;;;;;;;41.62;10.89;95034.59;4994266;28;20636;-70
2023/04/29 06:56:20;;;;;;;5.80;5.30;;;;;;;40.09;11.67;95032.91;4994011;28;20232;-69
2023/04/29 06:58:47;;;;;;;8.82;4.80;;;;;;;40.44;11.24;95041.63;4993896;28;20216;-69
2023/04/29 07:01:14;;;;;;;6.03;4.80;;;;;;;39.70;12.01;95029.94;4993568;28;20251;-69
2023/04/29 07:03:42;;;;;;;11.93;5.03;;;;;;;34.84;14.04;95031.81;4993822;28;20236;-67
2023/04/29 07:06:09;;;;;;;11.13;5.43;;;;;;;31.15;17.08;95026.69;4993953;28;20205;-68
2023/04/29 07:08:35;;;;;;;11.32;7.65;;;;;;;29.77;18.97;95033.53;4993353;28;20236;-67
2023/04/29 07:11:03;;;;;;;6.03;5.25;;;;;;;31.74;17.32;95016.22;4993661;28;20244;-68
2023/04/29 07:13:29;;;;;;;6.10;4.97;;;;;;;32.87;16.44;95013.88;4993181;28;20201;-67
2023/04/29 07:15:56;;;;;;;6.85;5.72;;;;;;;32.82;16.60;95018.91;4993334;28;20205;-67
2023/04/29 07:18:23;;;;;;;8.93;5.45;;;;;;;32.95;17.00;95023.44;4993801;28;20225;-68
2023/04/29 07:20:51;;;;;;;6.78;5.25;;;;;;;33.43;16.54;95027.91;4993366;28;20243;-69
2023/04/29 07:23:18;;;;;;;11.80;5.88;;;;;;;34.73;15.76;95024.44;4992301;28;20750;-67
2023/04/29 07:25:45;;;;;;;6.80;6.03;;;;;;;37.03;13.94;95022.22;4991901;28;20205;-69
2023/04/29 07:28:12;;;;;;;13.77;6.35;;;;;;;38.64;12.84;95024.66;4991256;28;20296;-69
2023/04/29 07:30:38;;;;;;;7.45;6.35;;;;;;;39.57;12.23;95024.88;4979683;28;20287;-68
2023/04/29 07:33:05;;;;;;;5.88;5.35;;;;;;;40.32;11.92;95022.22;4991226;28;20263;-69
2023/04/29 07:35:32;;;;;;;12.50;6.18;;;;;;;40.48;11.29;95014.50;4992060;28;20244;-67
2023/04/29 07:38:00;;;;;;;9.10;6.22;;;;;;;40.48;11.30;95011.84;4991562;28;20760;-68
2023/04/29 07:40:26;;;;;;;6.55;5.93;;;;;;;41.80;11.19;95016.72;4991804;28;20675;-69
2023/04/29 07:42:53;;;;;;;6.53;5.43;;;;;;;42.64;10.46;95012.66;4992788;28;20243;-69
2023/04/29 07:45:20;;;;;;;6.57;6.00;;;;;;;44.04;10.11;95009.75;4993869;28;20242;-69
2023/04/29 07:47:46;;;;;;;15.02;13.63;;;;;;;45.81;9.00;95000.28;4998310;28;20299;-69
2023/04/29 07:50:13;;;;;;;8.20;7.50;;;;;;;44.87;9.33;95002.50;4995116;28;20283;-68
2023/04/29 07:52:40;;;;;;;6.22;5.80;;;;;;;41.33;10.56;95003.75;4992547;28;20674;-68
2023/04/29 07:55:09;;;;;;;39.40;21.88;;;;;;;39.96;11.98;95001.22;4992922;28;20217;-69
2023/04/29 07:57:35;;;;;;;12.98;9.35;;;;;;;40.54;11.90;94989.59;4999390;28;20205;-68
2023/04/29 08:00:02;;;;;;;15.25;11.00;;;;;;;41.07;11.15;94983.84;4992577;28;20763;-68
2023/04/29 08:02:29;;;;;;;12.32;9.95;;;;;;;41.74;10.98;94981.94;4992249;28;20208;-68
2023/04/29 08:04:56;;;;;;;7.80;6.93;;;;;;;42.41;10.12;94988.91;4992673;28;20691;-69
2023/04/29 08:07:23;;;;;;;10.00;8.40;;;;;;;41.77;10.61;94981.44;4992120;28;20237;-67
2023/04/29 08:09:50;;;;;;;9.70;6.60;;;;;;;42.02;10.41;94986.34;4992481;28;20693;-69
2023/04/29 08:12:18;;;;;;;13.95;6.05;;;;;;;42.04;10.11;94983.41;4992263;28;20216;-69
2023/04/29 08:14:44;;;;;;;7.60;5.90;;;;;;;43.72;9.85;94975.84;4992022;28;20264;-70
2023/04/29 08:17:11;;;;;;;6.70;6.05;;;;;;;44.06;9.41;94975.47;4992217;28;21690;-68
2023/04/29 08:19:38;;;;;;;6.75;6.10;;;;;;;45.07;9.09;94975.69;4992492;28;20263;-69
2023/04/29 08:22:05;;;;;;;9.65;5.53;;;;;;;44.53;9.33;94971.88;4992282;28;20303;-69
2023/04/29 08:24:33;;;;;;;7.28;6.05;;;;;;;43.15;9.74;94977.56;4991953;28;20293;-68
2023/04/29 08:27:00;;;;;;;6.63;6.05;;;;;;;41.93;10.20;94968.28;4992134;28;20201;-69
2023/04/29 08:29:31;;;;;;;5.47;4.90;;;;;;;40.94;11.11;94971.66;4992393;28;20707;-66
2023/04/29 08:31:58;;;;;;;5.82;5.32;;;;;;;39.75;11.28;94974.16;4991810;28;20209;-68
2023/04/29 08:34:24;;;;;;;6.68;4.60;;;;;;;39.88;10.72;94975.78;4991812;28;20279;-68
2023/04/29 08:36:51;;;;;;;7.90;5.72;;;;;;;38.51;11.97;94977.03;4991807;28;20225;-68
2023/04/29 08:39:18;;;;;;;7.82;5.60;;;;;;;36.36;12.41;94971.53;4991969;28;20691;-68
2023/04/29 08:41:50;;;;;;;5.38;4.97;;;;;;;31.63;15.82;94979.88;4991844;28;20197;-66
2023/04/29 08:44:16;;;;;;;7.30;5.20;;;;;;;28.42;18.78;94981.00;4991900;28;20211;-67
2023/04/29 08:46:46;;;;;;;5.97;5.10;;;;;;;27.66;19.37;94981.13;4991357;28;20201;-68
2023/04/29 08:49:13;;;;;;;5.80;5.13;;;;;;;30.22;17.39;94976.16;4992045;28;20225;-67
2023/04/29 08:51:40;;;;;;;6.82;4.68;;;;;;;32.52;16.13;94964.75;4991594;28;20279;-68
2023/04/29 08:54:07;;;;;;;13.82;8.02;;;;;;;34.06;15.15;94960.13;4991759;28;20646;-67
2023/04/29 08:56:34;;;;;;;8.52;5.82;;;;;;;35.83;13.76;94959.56;4990884;28;20204;-67
2023/04/29 08:59:03;;;;;;;9.77;5.72;;;;;;;37.09;12.89;94958.59;4991845;28;20717;-67
2023/04/29 09:01:30;;;;;;;9.52;4.53;;;;;;;37.99;12.55;94955.44;4991010;28;20236;-68
2023/04/29 09:04:09;;;;;;;6.32;5.03;;;;;;;38.12;12.29;94957.94;4991712;28;20208;-69
2023/04/29 09:06:36;;;;;;;7.70;5.93;;;;;;;37.54;12.94;94950.44;4991656;28;20205;-67
2023/04/29 09:09:04;;;;;;;8.60;5.22;;;;;;;35.81;13.36;94948.38;4991340;28;20292;-68
2023/04/29 09:11:32;;;;;;;6.97;5.20;;;;;;;32.86;15.28;94951.72;4991698;28;20232;-67
2023/04/29 09:14:01;;;;;;;9.45;5.32;;;;;;;29.62;17.48;94961.06;4991378;28;20239;-66
2023/04/29 09:16:28;;;;;;;5.25;4.78;;;;;;;27.52;19.78;94963.38;4991862;28;20205;-68
2023/04/29 09:18:55;;;;;;;7.32;4.93;;;;;;;26.43;21.41;94960.41;4991490;28;20208;-68
2023/04/29 09:21:25;;;;;;;11.10;5.35;;;;;;;25.66;21.64;94960.94;4991540;28;20594;-69
2023/04/29 09:23:54;;;;;;;9.43;4.85;;;;;;;25.06;22.62;94957.84;4990842;28;20209;-68
2023/04/29 09:26:22;;;;;;;7.15;5.45;;;;;;;25.89;21.82;94956.13;4990573;28;20671;-67
2023/04/29 09:29:06;;;;;;;10.32;4.95;;;;;;;27.10;21.15;94945.91;4989904;28;20201;-68
2023/04/29 09:31:33;;;;;;;10.90;5.38;;;;;;;27.61;20.50;94941.59;4991038;28;20243;-69
2023/04/29 09:34:00;;;;;;;5.60;5.10;;;;;;;27.97;20.20;94933.53;4991697;28;20241;-67
2023/04/29 09:36:39;;;;;;;5.80;5.20;;;;;;;28.20;20.39;94934.59;4991408;28;20346;-68
2023/04/29 09:39:10;;;;;;;10.13;5.47;;;;;;;28.20;20.20;94934.59;4991508;28;20550;-68
2023/04/29 09:41:41;;;;;;;9.20;4.85;;;;;;;28.01;19.97;94929.63;4990969;28;20663;-68
2023/04/29 09:44:10;;;;;;;5.03;4.50;;;;;;;27.70;20.30;94932.84;4990677;28;20211;-67
2023/04/29 09:46:37;;;;;;;13.02;5.63;;;;;;;27.73;20.90;94929.88;4988250;28;20763;-68
2023/04/29 09:49:06;;;;;;;5.35;4.78;;;;;;;27.62;20.49;94932.81;4989564;28;20267;-67
2023/04/29 09:51:33;;;;;;;7.45;5.22;;;;;;;27.30;20.77;94922.19;4989533;28;20248;-67
2023/04/29 09:54:20;;;;;;;7.18;4.80;;;;;;;27.06;21.46;94923.72;4989918;28;20259;-67
2023/04/29 09:56:50;;;;;;;5.47;4.75;;;;;;;26.71;21.34;94923.81;4979562;28;20244;-67
2023/04/29 09:59:17;;;;;;;4.80;4.40;;;;;;;25.99;22.27;94919.59;4990160;28;20583;-68
2023/04/29 10:01:44;;;;;;;7.75;4.43;;;;;;;25.29;23.23;94906.28;4990747;28;20232;-67
2023/04/29 10:04:11;;;;;;;7.93;4.57;;;;;;;24.76;23.50;94903.44;4990959;28;20205;-68
2023/04/29 10:06:41;;;;;;;4.78;4.30;;;;;;;24.60;23.87;94898.84;4991006;28;20204;-66
2023/04/29 10:09:16;;;;;;;6.25;4.40;;;;;;;24.32;23.60;94897.94;4990595;28;20239;-68
2023/04/29 10:11:43;;;;;;;11.73;4.90;;;;;;;24.11;23.83;94891.25;4991036;28;20223;-68
2023/04/29 10:14:13;;;;;;;6.28;4.57;;;;;;;24.08;25.16;94892.31;4990823;28;20288;-67
2023/04/29 10:16:46;;;;;;;11.02;4.05;;;;;;;24.26;24.89;94890.69;4991022;28;20581;-69
2023/04/29 10:19:18;;;;;;;5.75;3.75;;;;;;;24.48;24.06;94892.19;4990128;28;20201;-66
2023/04/29 10:21:48;;;;;;;6.70;3.70;;;;;;;24.67;23.13;94888.72;4990395;28;20300;-66
2023/04/29 10:24:18;;;;;;;7.07;3.38;;;;;;;24.79;23.23;94892.78;4990693;28;20228;-68
2023/04/29 10:26:47;;;;;;;4.80;3.38;;;;;;;24.79;23.86;94889.38;4990851;28;20216;-69
2023/04/29 10:29:15;;;;;;;8.25;3.42;;;;;;;24.38;24.36;94883.59;4991004;28;20308;-67
2023/04/29 10:31:43;;;;;;;6.88;4.00;;;;;;;24.10;24.70;94882.63;4990493;28;20241;-67
2023/04/29 10:34:12;;;;;;;6.60;3.78;;;;;;;23.51;25.58;94883.50;4990549;28;20679;-68
2023/04/29 10:36:40;;;;;;;7.45;3.70;;;;;;;23.30;26.22;94880.19;4990682;28;20208;-68
2023/04/29 10:39:13;;;;;;;7.10;3.45;;;;;;;22.97;27.04;94868.38;4991143;28;20209;-67
2023/04/29 10:41:46;;;;;;;5.10;3.25;;;;;;;22.82;27.52;94893.81;4990715;28;20197;-68
2023/04/29 10:44:13;;;;;;;6.55;3.67;;;;;;;22.67;27.88;94879.53;4990665;28;20209;-67
2023/04/29 10:46:40;;;;;;;4.93;3.47;;;;;;;22.83;27.81;94882.50;4990426;28;20683;-70
2023/04/29 10:49:07;;;;;;;3.92;3.58;;;;;;;23.02;26.93;94879.97;4990955;28;20205;-67
2023/04/29 10:51:35;;;;;;;9.32;3.28;;;;;;;23.01;26.44;94875.75;4990438;28;20345;-66
2023/04/29 10:54:04;;;;;;;9.43;3.00;;;;;;;23.35;26.21;94878.84;4990696;28;20240;-67
2023/04/29 10:56:42;;;;;;;4.47;3.60;;;;;;;23.64;25.83;94878.13;4989730;28;20265;-65
2023/04/29 10:59:14;;;;;;;5.68;3.63;;;;;;;23.77;24.95;94875.25;4993045;28;20205;-67
2023/04/29 11:01:43;;;;;;;3.50;3.20;;;;;;;23.73;24.94;94869.53;4993856;28;20232;-68
2023/04/29 11:04:10;;;;;;;4.00;2.83;;;;;;;23.49;25.03;94869.88;4993487;28;20700;-67
2023/04/29 11:06:43;;;;;;;6.45;3.10;;;;;;;23.11;25.49;94868.00;4993606;28;20216;-68
2023/04/29 11:09:13;;;;;;;7.65;3.22;;;;;;;22.58;26.35;94862.97;4993425;28;20260;-67
2023/04/29 11:11:45;;;;;;;4.90;3.15;;;;;;;22.33;26.41;94873.75;4993671;28;20219;-65
2023/04/29 11:14:13;;;;;;;2.67;2.45;;;;;;;22.04;24.45;94868.38;4993570;28;20695;-66
2023/04/29 11:16:48;;;;;;;2.63;2.30;;;;;;;21.71;24.38;94871.91;4993908;28;20232;-67
2023/04/29 11:19:15;;;;;;;3.15;2.33;;;;;;;21.39;24.65;94866.72;4993801;28;20212;-67
2023/04/29 11:21:44;;;;;;;3.53;2.65;;;;;;;21.25;24.31;94864.41;4993449;28;20649;-66
2023/04/29 11:24:11;;;;;;;2.30;2.10;;;;;;;21.14;24.84;94867.78;4993355;28;20309;-67
2023/04/29 11:26:38;;;;;;;2.25;2.05;;;;;;;21.08;24.76;94877.75;4992229;28;20229;-66
2023/04/29 11:29:08;;;;;;;2.63;2.42;;;;;;;21.11;24.52;94865.44;4991668;28;20655;-66
2023/04/29 11:31:36;;;;;;;5.18;2.40;;;;;;;21.22;24.65;94865.47;4991958;28;20201;-66
2023/04/29 11:34:05;;;;;;;5.20;2.28;;;;;;;21.48;24.69;94868.56;4991288;28;20619;-66
2023/04/29 11:36:32;;;;;;;2.20;2.00;;;;;;;21.80;23.93;94862.56;4991451;28;20208;-65
2023/04/29 11:39:00;;;;;;;2.67;2.28;;;;;;;22.04;23.63;94856.25;4992110;28;20287;-68